createdAt,value
2019-05-17T00:01:42.462Z,21.00
2019-05-17T00:04:16.632Z,22.48
2019-05-17T00:06:49.610Z,21.82
2019-05-17T00:09:22.479Z,23.22
2019-05-17T00:11:56.869Z,20.60
2019-05-17T00:14:29.886Z,19.67
2019-05-17T00:17:02.710Z,19.48
2019-05-17T00:19:36.964Z,18.57
2019-05-17T00:22:09.836Z,18.67
2019-05-17T00:24:42.768Z,17.02
2019-05-17T00:27:17.244Z,16.32
2019-05-17T00:29:50.069Z,14.47
2019-05-17T00:32:22.876Z,12.75
2019-05-17T00:34:56.388Z,14.47
2019-05-17T00:37:29.305Z,14.90
2019-05-17T00:40:02.094Z,15.75
2019-05-17T00:42:36.980Z,18.50
2019-05-17T00:45:09.670Z,17.02
2019-05-17T00:47:42.415Z,18.67
2019-05-17T00:50:17.119Z,18.67
2019-05-17T00:52:49.815Z,16.30
2019-05-17T00:55:22.621Z,14.20
2019-05-17T00:57:56.522Z,13.68
2019-05-17T01:03:01.456Z,9.90
2019-05-17T01:05:36.669Z,11.18
2019-05-17T01:08:08.835Z,12.25
2019-05-17T01:10:41.894Z,12.37
2019-05-17T01:13:17.131Z,14.20
2019-05-17T01:15:49.396Z,16.32
2019-05-17T01:18:22.418Z,18.73
2019-05-17T01:20:56.792Z,20.92
2019-05-17T01:23:29.880Z,24.18
2019-05-17T01:26:02.898Z,24.43
2019-05-17T01:31:09.416Z,30.50
2019-05-17T01:36:17.372Z,27.15
2019-05-17T01:38:51.450Z,27.20
2019-05-17T01:41:26.687Z,31.95
2019-05-17T01:44:00.693Z,32.13
2019-05-17T01:46:36.863Z,33.13
2019-05-17T01:49:10.261Z,29.82
2019-05-17T01:51:46.563Z,31.68
2019-05-17T01:54:20.034Z,31.57
2019-05-17T01:56:53.923Z,28.17
2019-05-17T01:59:27.755Z,27.27
2019-05-17T02:02:03.216Z,28.12
2019-05-17T02:04:38.310Z,30.23
2019-05-17T02:07:12.197Z,33.88
2019-05-17T02:09:47.741Z,30.45
2019-05-17T02:12:21.746Z,33.85
2019-05-17T02:14:57.578Z,32.95
2019-05-17T02:17:31.324Z,28.32
2019-05-17T02:22:41.564Z,28.25
2019-05-17T02:25:17.341Z,31.20
2019-05-17T02:27:52.331Z,29.10
2019-05-17T02:30:26.462Z,27.05
2019-05-17T02:33:03.776Z,33.60
2019-05-17T02:35:36.023Z,30.62
2019-05-17T02:38:12.997Z,30.62
2019-05-17T02:40:45.505Z,35.00
2019-05-17T02:43:19.309Z,34.85
2019-05-17T02:45:53.198Z,35.58
2019-05-17T02:48:27.016Z,32.83
2019-05-17T02:51:03.560Z,32.58
2019-05-17T02:53:36.447Z,31.45
2019-05-17T02:56:13.368Z,32.63
2019-05-17T02:58:45.797Z,33.28
2019-05-17T03:01:19.734Z,34.08
2019-05-17T03:03:53.676Z,32.48
2019-05-17T03:06:27.479Z,32.25
2019-05-17T03:09:03.546Z,32.55
2019-05-17T03:11:37.013Z,33.00
2019-05-17T03:14:12.840Z,34.80
2019-05-17T03:16:46.473Z,33.18
2019-05-17T03:19:23.354Z,32.03
2019-05-17T03:21:56.309Z,35.38
2019-05-17T03:24:33.054Z,32.33
2019-05-17T03:27:05.992Z,34.18
2019-05-17T03:34:56.080Z,23.73
2019-05-17T03:37:32.557Z,28.92
2019-05-17T03:40:04.721Z,32.08
2019-05-17T03:42:37.540Z,33.78
2019-05-17T03:45:13.692Z,32.13
2019-05-17T03:47:47.735Z,27.15
2019-05-17T03:50:22.722Z,20.35
2019-05-17T03:52:57.079Z,17.60
2019-05-17T04:00:38.714Z,15.13
2019-05-17T04:03:13.757Z,15.80
2019-05-17T04:05:47.850Z,16.17
2019-05-17T04:08:22.915Z,16.37
2019-05-17T04:10:56.985Z,18.82
2019-05-17T04:13:33.649Z,17.60
2019-05-17T04:16:09.226Z,18.25
2019-05-17T04:18:43.748Z,18.90
2019-05-17T04:21:17.979Z,17.48
2019-05-17T04:28:59.590Z,14.07
2019-05-17T04:31:34.824Z,15.65
2019-05-17T04:34:09.172Z,18.92
2019-05-17T04:36:43.421Z,18.07
2019-05-17T04:39:17.624Z,19.73
2019-05-17T04:41:54.817Z,20.10
2019-05-17T04:44:27.168Z,20.30
2019-05-17T04:47:03.056Z,24.05
2019-05-17T04:49:36.583Z,22.73
2019-05-17T04:52:13.522Z,25.95
2019-05-17T04:54:46.104Z,31.07
2019-05-17T04:57:22.935Z,25.88
2019-05-17T04:59:55.599Z,25.60
2019-05-17T05:02:33.110Z,27.35
2019-05-17T05:05:06.773Z,18.90
2019-05-17T05:07:43.133Z,15.35
2019-05-17T05:10:16.565Z,17.55
2019-05-17T05:12:52.406Z,17.40
2019-05-17T05:15:43.277Z,18.12
2019-05-17T05:18:15.968Z,16.35
2019-05-17T05:20:52.452Z,15.85
2019-05-17T05:23:25.365Z,15.13
2019-05-17T05:25:59.198Z,19.25
2019-05-17T05:28:33.146Z,25.92
2019-05-17T05:31:07.083Z,24.07
2019-05-17T05:33:41.949Z,16.90
2019-05-17T05:36:15.958Z,12.60
2019-05-17T05:38:51.532Z,11.10
2019-05-17T05:41:25.527Z,10.78
2019-05-17T05:44:01.650Z,11.68
2019-05-17T05:46:35.027Z,10.65
2019-05-17T05:49:08.909Z,9.90
2019-05-17T05:51:42.739Z,10.48
2019-05-17T05:54:16.658Z,11.95
2019-05-17T05:56:52.442Z,12.30
2019-05-17T05:59:26.178Z,13.13
2019-05-17T06:02:01.783Z,12.05
2019-05-17T06:04:35.785Z,12.15
2019-05-17T06:09:43.885Z,11.30
2019-05-17T06:12:23.655Z,11.33
2019-05-17T06:14:53.427Z,12.47
2019-05-17T06:17:27.334Z,13.35
2019-05-17T06:20:02.617Z,13.20
2019-05-17T06:22:36.912Z,14.43
2019-05-17T06:25:15.038Z,15.35
2019-05-17T06:27:46.749Z,17.17
2019-05-17T06:32:55.684Z,17.10
2019-05-17T06:35:32.349Z,21.77
2019-05-17T06:38:05.453Z,22.17
2019-05-17T06:40:42.070Z,21.05
2019-05-17T06:43:15.850Z,22.45
2019-05-17T06:45:52.036Z,20.77
2019-05-17T06:48:25.398Z,21.82
2019-05-17T06:50:59.358Z,22.73
2019-05-17T06:53:33.556Z,19.92
2019-05-17T06:56:08.420Z,16.27
2019-05-17T06:58:42.377Z,16.10
2019-05-17T07:01:16.825Z,15.38
2019-05-17T07:03:50.941Z,15.23
2019-05-17T07:09:00.935Z,14.75
2019-05-17T07:11:35.439Z,14.90
2019-05-17T07:14:09.911Z,14.65
2019-05-17T07:16:44.177Z,14.25
2019-05-17T07:19:19.776Z,14.90
2019-05-17T07:21:53.844Z,13.88
2019-05-17T07:27:01.304Z,13.70
2019-05-17T07:32:09.806Z,15.08
2019-05-17T07:34:44.397Z,14.35
2019-05-17T07:37:19.600Z,16.37
2019-05-17T07:40:01.157Z,14.25
2019-05-17T07:42:31.752Z,15.30
2019-05-17T07:45:10.145Z,14.33
2019-05-17T07:47:44.599Z,14.13
2019-05-17T07:50:20.173Z,15.55
2019-05-17T07:52:54.401Z,15.48
2019-05-17T07:55:30.315Z,15.98
2019-05-17T07:58:04.297Z,16.05
2019-05-17T08:00:39.959Z,17.02
2019-05-17T08:03:14.204Z,18.05
2019-05-17T08:08:21.943Z,17.35
2019-05-17T08:10:56.135Z,16.80
2019-05-17T08:13:33.205Z,18.95
2019-05-17T08:16:06.421Z,18.90
2019-05-17T08:18:40.429Z,18.12
2019-05-17T08:23:47.583Z,18.52
2019-05-17T08:28:55.298Z,15.32
2019-05-17T08:31:29.621Z,16.12
2019-05-17T08:34:03.671Z,16.55
2019-05-17T08:36:40.542Z,16.67
2019-05-17T08:39:16.450Z,17.92
2019-05-17T08:41:54.142Z,17.75
2019-05-17T08:44:30.901Z,18.23
2019-05-17T08:47:10.187Z,23.65
2019-05-17T08:49:44.946Z,20.62
2019-05-17T08:52:20.195Z,20.77
2019-05-17T08:54:54.846Z,20.30
2019-05-17T08:57:30.289Z,21.05
2019-05-17T09:00:06.752Z,19.45
2019-05-17T09:02:41.262Z,20.32
2019-05-17T09:05:15.352Z,20.30
2019-05-17T09:10:23.345Z,19.75
2019-05-17T09:12:59.549Z,20.88
2019-05-17T09:15:33.045Z,19.90
2019-05-17T09:20:40.854Z,19.23
2019-05-17T09:23:14.793Z,19.17
2019-05-17T09:25:50.137Z,20.88
2019-05-17T09:28:24.225Z,21.62
2019-05-17T09:30:59.929Z,20.57
2019-05-17T09:33:33.996Z,21.10
2019-05-17T09:36:10.102Z,20.17
2019-05-17T09:38:43.964Z,21.62
2019-05-17T09:41:20.055Z,22.27
2019-05-17T09:43:54.184Z,22.17
2019-05-17T09:46:30.316Z,22.10
2019-05-17T09:49:05.797Z,22.65
2019-05-17T09:51:41.671Z,25.77
2019-05-17T09:54:17.009Z,25.45
2019-05-17T09:56:53.618Z,25.00
2019-05-17T09:59:30.172Z,24.55
2019-05-17T10:02:04.495Z,24.12
2019-05-17T10:04:39.534Z,26.52
2019-05-17T10:07:13.705Z,28.15
2019-05-17T10:12:21.038Z,28.10
2019-05-17T10:17:29.367Z,27.80
2019-05-17T10:20:05.099Z,27.98
2019-05-17T10:22:40.100Z,27.32
2019-05-17T10:25:16.120Z,26.80
2019-05-17T10:27:50.174Z,24.80
2019-05-17T10:33:00.020Z,24.07
2019-05-17T10:35:33.899Z,24.87
2019-05-17T10:38:10.355Z,23.75
2019-05-17T10:40:43.904Z,23.80
2019-05-17T10:45:51.587Z,24.18
2019-05-17T10:48:25.729Z,22.17
2019-05-17T10:51:00.282Z,20.80
2019-05-17T10:53:34.734Z,18.55
2019-05-17T10:56:09.944Z,17.42
2019-05-17T10:58:43.952Z,18.42
2019-05-17T11:01:20.070Z,17.27
2019-05-17T11:03:53.698Z,18.67
2019-05-17T11:06:27.585Z,19.07
2019-05-17T11:09:01.515Z,18.75
2019-05-17T11:11:35.407Z,20.35
2019-05-17T11:14:09.278Z,19.70
2019-05-17T11:16:43.458Z,20.57
2019-05-17T11:19:17.418Z,20.82
2019-05-17T11:21:51.236Z,19.30
2019-05-17T11:24:28.227Z,18.45
2019-05-17T11:27:02.163Z,18.92
2019-05-17T11:29:36.080Z,17.75
2019-05-17T11:32:10.313Z,18.32
2019-05-17T11:34:44.215Z,18.23
2019-05-17T11:37:18.215Z,17.32
2019-05-17T11:39:52.193Z,18.67
2019-05-17T11:42:26.238Z,19.55
2019-05-17T11:47:33.479Z,17.75
2019-05-17T11:50:08.149Z,17.23
2019-05-17T11:52:42.052Z,17.42
2019-05-17T11:55:16.003Z,18.48
2019-05-17T11:57:50.160Z,18.77
2019-05-17T12:00:24.477Z,18.62
2019-05-17T12:02:58.351Z,20.02
2019-05-17T12:05:32.422Z,19.60
2019-05-17T12:10:41.305Z,17.42
2019-05-17T12:13:15.296Z,16.87
2019-05-17T12:15:49.201Z,17.65
2019-05-17T12:18:23.373Z,17.20
2019-05-17T12:23:30.598Z,17.20
2019-05-17T12:28:38.991Z,16.87
2019-05-17T12:31:12.805Z,17.42
2019-05-17T12:33:46.853Z,16.75
2019-05-17T12:38:54.047Z,17.75
2019-05-17T12:41:28.025Z,17.48
2019-05-17T12:44:02.057Z,16.85
2019-05-17T12:49:09.329Z,15.90
2019-05-17T12:51:43.193Z,16.73
2019-05-17T12:54:17.362Z,20.88
2019-05-17T12:59:25.081Z,15.83
2019-05-17T13:01:59.333Z,17.57
2019-05-17T13:04:33.530Z,15.65
2019-05-17T13:07:07.942Z,15.85
2019-05-17T13:09:41.830Z,18.17
2019-05-17T13:12:15.953Z,15.53
2019-05-17T13:17:23.207Z,15.90
2019-05-17T13:22:30.477Z,14.80
2019-05-17T13:25:06.354Z,19.75
2019-05-17T13:27:40.337Z,18.65
2019-05-17T13:30:14.725Z,21.12
2019-05-17T13:32:48.650Z,19.02
2019-05-17T13:35:23.036Z,18.35
2019-05-17T13:37:58.231Z,17.52
2019-05-17T13:40:39.292Z,15.20
2019-05-17T13:43:08.123Z,15.20
2019-05-17T13:45:44.780Z,15.23
2019-05-17T13:48:19.028Z,15.30
2019-05-17T13:50:53.141Z,14.18
2019-05-17T13:56:00.722Z,16.37
2019-05-17T13:58:34.839Z,15.53
2019-05-17T14:01:09.290Z,18.95
2019-05-17T14:03:43.440Z,18.85
2019-05-17T14:06:18.984Z,19.73
2019-05-17T14:08:52.943Z,19.30
2019-05-17T14:11:26.888Z,23.65
2019-05-17T14:14:00.995Z,20.60
2019-05-17T14:19:09.065Z,19.17
2019-05-17T14:21:44.142Z,19.80
2019-05-17T14:24:18.151Z,26.65
2019-05-17T14:26:52.408Z,22.15
2019-05-17T14:29:26.509Z,20.43
2019-05-17T14:34:34.919Z,23.65
2019-05-17T14:37:08.939Z,24.77
2019-05-17T14:39:43.108Z,24.25
2019-05-17T14:42:17.002Z,29.12
2019-05-17T14:44:50.988Z,28.17
2019-05-17T14:47:24.896Z,27.25
2019-05-17T14:49:58.834Z,21.50
2019-05-17T14:52:32.664Z,23.65
2019-05-17T14:55:06.838Z,25.72
2019-05-17T14:57:43.036Z,22.58
2019-05-17T15:00:17.058Z,26.48
2019-05-17T15:02:50.956Z,33.20
2019-05-17T15:05:25.128Z,27.50
2019-05-17T15:10:32.520Z,15.38
2019-05-17T15:15:39.959Z,15.43
2019-05-17T15:20:47.178Z,15.93
2019-05-17T15:23:21.440Z,17.45
2019-05-17T15:25:55.498Z,18.80
2019-05-17T15:31:02.830Z,18.12
2019-05-17T15:33:36.809Z,16.60
2019-05-17T15:38:43.818Z,19.25
2019-05-17T15:41:17.699Z,27.07
2019-05-17T15:43:51.717Z,20.23
2019-05-17T15:46:25.793Z,12.03
2019-05-17T15:51:33.189Z,10.30
2019-05-17T15:54:07.596Z,11.88
2019-05-17T15:56:41.582Z,14.15
2019-05-17T15:59:15.415Z,17.50
2019-05-17T16:01:49.319Z,22.45
2019-05-17T16:04:23.575Z,25.05
2019-05-17T16:06:57.922Z,24.72
2019-05-17T16:09:31.933Z,22.65
2019-05-17T16:12:06.243Z,18.27
2019-05-17T16:14:40.278Z,16.60
2019-05-17T16:19:47.279Z,13.72
2019-05-17T16:22:21.284Z,14.53
2019-05-17T16:27:28.276Z,19.05
2019-05-17T16:30:04.642Z,15.28
2019-05-17T16:32:37.974Z,14.87
2019-05-17T16:35:12.251Z,15.30
2019-05-17T16:37:46.046Z,25.08
2019-05-17T16:40:20.170Z,70.37
2019-05-17T16:42:54.070Z,91.45
2019-05-17T16:45:28.046Z,69.05
2019-05-17T16:48:02.062Z,48.90
2019-05-17T16:50:38.096Z,26.00
2019-05-17T16:53:12.513Z,23.62
2019-05-17T16:55:46.846Z,27.15
2019-05-17T16:58:20.905Z,23.50
2019-05-17T17:00:55.326Z,26.33
2019-05-17T17:03:43.214Z,30.23
2019-05-17T17:06:05.263Z,28.60
2019-05-17T17:08:40.615Z,27.87
2019-05-17T17:11:14.676Z,28.95
2019-05-17T17:13:49.964Z,30.75
2019-05-17T17:16:23.992Z,31.30
2019-05-17T17:21:31.616Z,29.70
2019-05-17T17:24:06.128Z,28.23
2019-05-17T17:26:40.442Z,28.05
2019-05-17T17:29:14.508Z,27.00
2019-05-17T17:34:22.242Z,35.20
2019-05-17T17:36:56.533Z,38.42
2019-05-17T17:39:30.692Z,39.15
2019-05-17T17:44:37.926Z,50.63
2019-05-17T17:49:45.554Z,47.17
2019-05-17T17:52:19.586Z,48.92
2019-05-17T17:57:27.729Z,42.90
2019-05-17T18:00:02.454Z,42.30
2019-05-17T18:02:37.744Z,43.25
2019-05-17T18:05:12.699Z,43.98
2019-05-17T18:07:46.696Z,45.48
2019-05-17T18:12:55.657Z,40.55
2019-05-17T18:15:44.736Z,43.45
2019-05-17T18:18:19.077Z,40.92
2019-05-17T18:20:52.895Z,42.25
2019-05-17T18:23:27.373Z,44.95
2019-05-17T18:26:01.533Z,48.33
2019-05-17T18:31:09.132Z,48.73
2019-05-17T18:33:43.687Z,52.67
2019-05-17T18:36:17.636Z,55.55
2019-05-17T18:38:54.271Z,54.00
2019-05-17T18:41:28.319Z,59.83
2019-05-17T18:46:36.300Z,57.58
2019-05-17T18:49:10.360Z,56.18
2019-05-17T18:54:19.642Z,56.10
2019-05-17T18:56:54.172Z,49.95
2019-05-17T18:59:28.449Z,47.70
2019-05-17T19:02:02.562Z,48.30
2019-05-17T19:07:09.554Z,46.00
2019-05-17T19:09:43.488Z,51.63
2019-05-17T19:12:17.462Z,49.67
2019-05-17T19:14:51.482Z,45.20
2019-05-17T19:19:58.636Z,51.23
2019-05-17T19:22:32.815Z,45.67
2019-05-17T19:25:08.510Z,46.65
2019-05-17T19:27:42.445Z,45.65
2019-05-17T19:30:17.298Z,53.30
2019-05-17T19:32:51.180Z,45.17
2019-05-17T19:35:25.178Z,44.10
2019-05-17T19:40:32.298Z,45.88
2019-05-17T19:43:06.458Z,45.12
2019-05-17T19:48:14.855Z,88.97
2019-05-17T19:50:48.790Z,90.55
2019-05-17T19:53:22.643Z,47.00
2019-05-17T19:55:57.402Z,44.30
2019-05-17T19:58:31.420Z,46.33
2019-05-17T20:01:05.608Z,50.95
2019-05-17T20:03:39.528Z,42.58
2019-05-17T20:06:13.520Z,39.35
2019-05-17T20:11:33.599Z,44.60
2019-05-17T20:13:56.779Z,40.12
2019-05-17T20:19:05.648Z,49.60
2019-05-17T20:21:40.496Z,59.33
2019-05-17T20:24:16.634Z,60.75
2019-05-17T20:26:50.682Z,44.77
2019-05-17T20:29:25.140Z,39.92
2019-05-17T20:31:59.296Z,43.33
2019-05-17T20:34:33.248Z,42.83
2019-05-17T20:37:09.863Z,40.38
2019-05-17T20:39:43.976Z,36.38
2019-05-17T20:44:51.782Z,39.78
2019-05-17T20:47:27.466Z,26.10
2019-05-17T20:50:01.631Z,36.73
2019-05-17T20:55:09.331Z,42.67
2019-05-17T20:57:43.562Z,40.10
2019-05-17T21:00:18.155Z,47.40
2019-05-17T21:02:52.330Z,42.35
2019-05-17T21:05:26.887Z,44.25
2019-05-17T21:08:01.008Z,42.13
2019-05-17T21:13:08.328Z,41.80
2019-05-17T21:18:17.598Z,47.25
2019-05-17T21:20:51.515Z,44.93
2019-05-17T21:23:26.298Z,41.02
2019-05-17T21:26:00.170Z,43.63
2019-05-17T21:28:34.441Z,43.33
2019-05-17T21:31:08.385Z,49.15
2019-05-17T21:33:42.812Z,47.05
2019-05-17T21:36:16.935Z,39.33
2019-05-17T21:41:24.357Z,35.88
2019-05-17T21:43:58.624Z,31.57
2019-05-17T21:46:32.690Z,43.20
2019-05-17T21:51:40.152Z,40.45
2019-05-17T21:54:14.019Z,39.38
2019-05-17T21:56:47.852Z,34.35
2019-05-17T21:59:21.685Z,36.48
2019-05-17T22:01:56.199Z,35.83
2019-05-17T22:04:30.286Z,35.55
2019-05-17T22:09:37.262Z,38.15
2019-05-17T22:12:12.703Z,42.48
2019-05-17T22:14:46.551Z,47.38
2019-05-17T22:17:20.467Z,50.50
2019-05-17T22:19:55.171Z,51.08
2019-05-17T22:22:30.400Z,48.75
2019-05-17T22:25:05.490Z,50.60
2019-05-17T22:27:39.422Z,44.18
2019-05-17T22:30:13.424Z,43.17
2019-05-17T22:32:47.251Z,43.30
2019-05-17T22:35:22.234Z,43.30
2019-05-17T22:37:56.127Z,44.80
2019-05-17T22:40:30.084Z,45.30
2019-05-17T22:43:03.991Z,45.08
2019-05-17T22:45:37.880Z,48.08
2019-05-17T22:48:11.789Z,44.45
2019-05-17T22:50:45.685Z,44.90
2019-05-17T22:53:19.696Z,43.05
2019-05-17T22:55:53.829Z,40.60
2019-05-17T22:58:27.973Z,36.75
2019-05-17T23:03:35.051Z,38.20
2019-05-17T23:06:09.197Z,36.83
2019-05-17T23:08:43.219Z,38.80
2019-05-17T23:13:52.324Z,36.85
2019-05-17T23:16:26.215Z,38.58
2019-05-17T23:19:09.568Z,34.40
2019-05-17T23:21:43.470Z,39.42
2019-05-17T23:24:17.340Z,33.00
2019-05-17T23:26:51.289Z,38.23
2019-05-17T23:29:25.189Z,37.35
2019-05-17T23:31:59.130Z,40.25
2019-05-17T23:37:06.102Z,38.50
2019-05-17T23:39:39.988Z,36.77
2019-05-17T23:42:13.823Z,36.70
2019-05-17T23:44:47.641Z,31.85
2019-05-17T23:47:21.522Z,28.83
2019-05-17T23:49:55.368Z,31.07
2019-05-17T23:52:29.257Z,31.37
2019-05-17T23:55:03.434Z,28.77
2019-05-17T23:57:37.500Z,28.83
